Time;durP1;ratioP1;P1;durP2;ratioP2;P2;SDS_P1;SDS_P2;PMS_P1;PMS_P2;Temp;Humidity;BMP_temperature;BMP_pressure;BME280_temperature;BME280_humidity;BME280_pressure;Samples;Min_cycle;Max_cycle;Signal;HPM_P1;HPM_P2
2022/03/03 00:02:13;;;;;;;65.90;30.45;;;;;;;;;;5013206;28;20046;-73
2022/03/03 00:04:39;;;;;;;71.93;32.60;;;;;;;;;;5030113;28;20436;-73
2022/03/03 00:07:06;;;;;;;67.28;31.15;;;;;;;;;;4996655;28;20045;-73
2022/03/03 00:09:32;;;;;;;66.47;27.67;;;;;;;;;;5012392;28;20109;-73
2022/03/03 00:11:58;;;;;;;68.10;30.00;;;;;;;;;;5012757;28;20056;-73
2022/03/03 00:14:24;;;;;;;55.83;24.42;;;;;;;;;;5012905;28;20041;-73
2022/03/03 00:16:50;;;;;;;64.53;29.80;;;;;;;;;;5030304;28;20054;-73
2022/03/03 00:19:17;;;;;;;64.57;28.10;;;;;;;;;;4996691;28;20053;-73
2022/03/03 00:21:43;;;;;;;67.07;30.42;;;;;;;;;;4996579;28;20505;-73
2022/03/03 00:24:09;;;;;;;69.15;28.83;;;;;;;;;;5012489;28;20056;-73
2022/03/03 00:26:35;;;;;;;65.97;30.23;;;;;;;;;;5012244;28;20037;-73
2022/03/03 00:29:01;;;;;;;63.58;30.02;;;;;;;;;;5029953;28;20525;-73
2022/03/03 00:31:28;;;;;;;68.03;28.17;;;;;;;;;;5029952;28;20037;-73
2022/03/03 00:33:54;;;;;;;68.90;30.10;;;;;;;;;;5030161;28;20513;-73
2022/03/03 00:36:20;;;;;;;68.75;30.85;;;;;;;;;;5011954;28;20041;-72
2022/03/03 00:38:48;;;;;;;65.10;27.15;;;;;;;;;;5029657;28;20046;-73
2022/03/03 00:41:14;;;;;;;69.72;30.08;;;;;;;;;;5012420;28;20046;-73
2022/03/03 00:43:40;;;;;;;68.25;32.50;;;;;;;;;;5029589;28;20071;-73
2022/03/03 00:46:06;;;;;;;68.05;30.58;;;;;;;;;;5012321;28;20038;-73
2022/03/03 00:48:32;;;;;;;66.15;30.48;;;;;;;;;;5029485;28;20125;-73
2022/03/03 00:51:00;;;;;;;67.50;30.65;;;;;;;;;;5030347;28;20436;-73
2022/03/03 00:53:26;;;;;;;69.25;28.58;;;;;;;;;;5012384;28;20080;-73
2022/03/03 00:55:52;;;;;;;66.88;29.67;;;;;;;;;;5011655;28;20049;-73
2022/03/03 00:58:18;;;;;;;68.88;30.15;;;;;;;;;;5012475;28;20045;-73
2022/03/03 01:00:44;;;;;;;68.43;30.95;;;;;;;;;;5011791;28;20050;-73
2022/03/03 01:03:10;;;;;;;67.32;31.33;;;;;;;;;;5012148;28;20116;-73
2022/03/03 01:05:36;;;;;;;67.80;31.05;;;;;;;;;;5029730;28;20069;-73
2022/03/03 01:08:04;;;;;;;67.82;30.70;;;;;;;;;;5011982;28;20041;-73
2022/03/03 01:10:30;;;;;;;68.47;29.65;;;;;;;;;;5011726;28;20042;-73
2022/03/03 01:12:57;;;;;;;68.28;30.20;;;;;;;;;;5029728;28;20048;-73
2022/03/03 01:15:23;;;;;;;68.45;29.88;;;;;;;;;;5012093;28;20053;-73
2022/03/03 01:17:49;;;;;;;66.18;29.98;;;;;;;;;;5011355;28;20045;-73
2022/03/03 01:20:15;;;;;;;68.70;30.50;;;;;;;;;;5012264;28;20533;-73
2022/03/03 01:22:41;;;;;;;71.65;29.88;;;;;;;;;;5011511;28;20045;-73
2022/03/03 01:25:07;;;;;;;66.82;29.88;;;;;;;;;;5012056;28;20049;-73
2022/03/03 01:27:33;;;;;;;70.05;32.03;;;;;;;;;;5011149;28;20558;-73
2022/03/03 01:30:01;;;;;;;69.30;30.45;;;;;;;;;;5011278;28;20053;-73
2022/03/03 01:32:27;;;;;;;74.18;30.88;;;;;;;;;;5011298;28;20049;-74
2022/03/03 01:34:53;;;;;;;71.25;31.55;;;;;;;;;;5011219;28;20041;-73
2022/03/03 01:37:19;;;;;;;71.22;32.03;;;;;;;;;;5011195;28;20096;-73
2022/03/03 01:39:45;;;;;;;76.47;32.85;;;;;;;;;;5028719;28;20037;-74
2022/03/03 01:42:13;;;;;;;73.85;31.92;;;;;;;;;;5011488;28;20095;-73
2022/03/03 01:44:46;;;;;;;81.90;34.20;;;;;;;;;;5011320;28;20110;-73
2022/03/03 01:47:17;;;;;;;72.80;30.88;;;;;;;;;;5001418;28;20042;-74
2022/03/03 01:49:44;;;;;;;68.47;31.23;;;;;;;;;;4991274;28;20121;-74
2022/03/03 01:52:10;;;;;;;73.53;32.40;;;;;;;;;;5009478;28;20118;-74
2022/03/03 01:54:36;;;;;;;70.28;30.65;;;;;;;;;;4991692;28;20410;-74
2022/03/03 01:57:03;;;;;;;72.28;31.17;;;;;;;;;;4975253;28;20045;-74
2022/03/03 01:59:29;;;;;;;71.03;30.40;;;;;;;;;;5008906;28;20071;-74
2022/03/03 02:01:55;;;;;;;70.57;30.25;;;;;;;;;;4975706;28;20038;-74
2022/03/03 02:04:21;;;;;;;71.13;31.27;;;;;;;;;;4991724;28;20046;-74
2022/03/03 02:06:47;;;;;;;70.85;30.63;;;;;;;;;;5008967;28;20049;-73
2022/03/03 02:09:13;;;;;;;71.47;31.15;;;;;;;;;;5009573;28;20483;-73
2022/03/03 02:11:39;;;;;;;67.65;31.30;;;;;;;;;;4975131;28;20081;-73
2022/03/03 02:14:06;;;;;;;67.47;30.63;;;;;;;;;;4991828;28;20579;-73
2022/03/03 02:16:32;;;;;;;72.75;31.83;;;;;;;;;;5008681;28;20048;-73
2022/03/03 02:18:58;;;;;;;73.53;31.45;;;;;;;;;;4991463;28;20053;-73
2022/03/03 02:21:24;;;;;;;69.65;30.98;;;;;;;;;;5008760;28;20461;-73
2022/03/03 02:23:50;;;;;;;73.85;30.65;;;;;;;;;;4990757;28;20042;-73
2022/03/03 02:26:21;;;;;;;73.15;31.85;;;;;;;;;;4975575;28;20452;-73
2022/03/03 02:28:47;;;;;;;70.32;31.50;;;;;;;;;;5001200;28;20138;-73
2022/03/03 02:31:13;;;;;;;65.68;29.90;;;;;;;;;;5007870;28;20066;-72
2022/03/03 02:33:39;;;;;;;72.68;31.17;;;;;;;;;;5007557;28;20495;-74
2022/03/03 02:36:35;;;;;;;75.03;30.40;;;;;;;;;;5008723;28;20154;-74
2022/03/03 02:39:03;;;;;;;70.22;30.60;;;;;;;;;;5007712;28;20111;-74
2022/03/03 02:41:29;;;;;;;71.00;30.88;;;;;;;;;;4990718;28;20038;-74
2022/03/03 02:43:56;;;;;;;66.28;29.42;;;;;;;;;;5020231;28;20045;-74
2022/03/03 02:46:22;;;;;;;67.40;30.63;;;;;;;;;;4990794;28;20042;-74
2022/03/03 02:48:48;;;;;;;66.53;30.05;;;;;;;;;;5008228;28;20071;-74
2022/03/03 02:51:15;;;;;;;69.80;32.38;;;;;;;;;;5015774;28;20053;-74
2022/03/03 02:53:41;;;;;;;66.55;29.98;;;;;;;;;;5010228;28;20057;-74
2022/03/03 02:56:07;;;;;;;63.40;28.45;;;;;;;;;;5010572;28;20397;-74
2022/03/03 02:58:34;;;;;;;66.82;29.13;;;;;;;;;;5009906;28;20087;-74
2022/03/03 03:01:00;;;;;;;66.20;29.92;;;;;;;;;;5007070;28;20046;-74
2022/03/03 03:03:27;;;;;;;63.13;29.10;;;;;;;;;;4999543;28;20061;-74
2022/03/03 03:05:53;;;;;;;63.33;28.45;;;;;;;;;;5006110;28;20525;-74
2022/03/03 03:08:19;;;;;;;65.90;30.65;;;;;;;;;;4991241;28;20509;-74
2022/03/03 03:10:45;;;;;;;60.40;27.63;;;;;;;;;;5008100;28;20045;-74
2022/03/03 03:13:14;;;;;;;65.55;28.58;;;;;;;;;;5008011;28;20098;-74
2022/03/03 03:15:40;;;;;;;59.67;28.17;;;;;;;;;;5007969;28;20048;-74
2022/03/03 03:18:10;;;;;;;61.13;28.58;;;;;;;;;;5007814;28;20041;-74
2022/03/03 03:20:36;;;;;;;64.30;29.08;;;;;;;;;;5006689;28;20049;-74
2022/03/03 03:23:02;;;;;;;59.97;29.88;;;;;;;;;;5006360;28;20064;-75
2022/03/03 03:25:29;;;;;;;58.88;27.23;;;;;;;;;;4990712;28;20060;-74
2022/03/03 03:27:55;;;;;;;64.88;27.88;;;;;;;;;;4990581;28;20368;-74
2022/03/03 03:30:21;;;;;;;67.18;28.92;;;;;;;;;;5007583;28;20419;-74
2022/03/03 03:32:47;;;;;;;64.32;28.30;;;;;;;;;;5005467;28;20542;-74
2022/03/03 03:35:13;;;;;;;63.35;29.23;;;;;;;;;;4990193;28;20045;-74
2022/03/03 03:37:39;;;;;;;61.20;28.65;;;;;;;;;;5006370;28;20053;-74
2022/03/03 03:40:07;;;;;;;68.15;28.50;;;;;;;;;;5006428;28;20041;-74
2022/03/03 03:42:34;;;;;;;61.83;28.80;;;;;;;;;;5006456;28;20546;-74
2022/03/03 03:45:00;;;;;;;59.13;27.90;;;;;;;;;;5007367;28;20048;-74
2022/03/03 03:47:26;;;;;;;63.08;29.52;;;;;;;;;;5006431;28;20538;-74
2022/03/03 03:49:52;;;;;;;61.70;28.13;;;;;;;;;;5007259;28;20041;-74
2022/03/03 03:52:18;;;;;;;59.58;28.15;;;;;;;;;;5025989;28;20045;-74
2022/03/03 03:54:45;;;;;;;60.50;28.13;;;;;;;;;;5009355;28;20418;-74
2022/03/03 03:57:11;;;;;;;53.13;25.98;;;;;;;;;;5009436;28;20052;-74
2022/03/03 03:59:37;;;;;;;57.78;26.88;;;;;;;;;;5009028;28;20050;-74
2022/03/03 04:02:03;;;;;;;63.08;27.40;;;;;;;;;;5027119;28;20084;-74
2022/03/03 04:04:29;;;;;;;60.22;27.50;;;;;;;;;;5027093;28;20033;-74
2022/03/03 04:06:56;;;;;;;58.63;27.05;;;;;;;;;;4993152;28;20049;-74
2022/03/03 04:09:22;;;;;;;55.95;26.52;;;;;;;;;;5009750;28;20049;-73
2022/03/03 04:11:48;;;;;;;58.13;26.65;;;;;;;;;;5009491;28;20045;-74
2022/03/03 04:14:14;;;;;;;58.95;27.20;;;;;;;;;;5009208;28;20049;-74
2022/03/03 04:16:40;;;;;;;57.60;25.85;;;;;;;;;;5008965;28;20049;-74
2022/03/03 04:19:06;;;;;;;60.97;27.02;;;;;;;;;;5026942;28;20045;-74
2022/03/03 04:21:32;;;;;;;55.47;26.00;;;;;;;;;;5026949;28;20033;-74
2022/03/03 04:23:58;;;;;;;56.50;25.92;;;;;;;;;;5008957;28;20029;-74
2022/03/03 04:26:24;;;;;;;59.85;27.35;;;;;;;;;;5008971;28;20046;-74
2022/03/03 04:28:50;;;;;;;56.40;26.50;;;;;;;;;;5026542;28;20041;-74
2022/03/03 04:31:17;;;;;;;55.00;25.23;;;;;;;;;;5026518;28;20072;-74
2022/03/03 04:33:43;;;;;;;54.67;26.80;;;;;;;;;;5008703;28;20079;-74
2022/03/03 04:36:09;;;;;;;58.33;25.95;;;;;;;;;;5008986;28;20042;-74
2022/03/03 04:38:35;;;;;;;49.67;21.48;;;;;;;;;;5026538;28;20184;-73
2022/03/03 04:41:01;;;;;;;48.70;22.10;;;;;;;;;;5026823;28;20042;-74
2022/03/03 04:43:28;;;;;;;55.17;25.92;;;;;;;;;;5009917;28;20485;-74
2022/03/03 04:45:54;;;;;;;54.28;25.40;;;;;;;;;;5011936;28;20044;-74
2022/03/03 04:48:20;;;;;;;53.90;25.55;;;;;;;;;;5030237;28;20034;-73
2022/03/03 04:50:46;;;;;;;55.10;25.00;;;;;;;;;;5012135;28;20401;-73
2022/03/03 04:53:12;;;;;;;53.75;25.92;;;;;;;;;;5012218;28;20085;-74
2022/03/03 04:55:38;;;;;;;52.67;25.55;;;;;;;;;;5011913;28;20068;-73
2022/03/03 04:58:05;;;;;;;55.67;25.65;;;;;;;;;;5029534;28;20049;-73
2022/03/03 05:00:31;;;;;;;55.42;26.98;;;;;;;;;;5026313;28;20525;-73
2022/03/03 05:02:57;;;;;;;57.55;26.42;;;;;;;;;;4991682;28;20034;-73
2022/03/03 05:05:23;;;;;;;46.95;21.80;;;;;;;;;;5008868;28;20526;-73
2022/03/03 05:07:49;;;;;;;55.88;26.67;;;;;;;;;;5008093;28;20046;-72
2022/03/03 05:10:15;;;;;;;57.50;26.35;;;;;;;;;;5008924;28;20394;-74
2022/03/03 05:12:41;;;;;;;50.78;22.63;;;;;;;;;;5009867;28;20042;-74
2022/03/03 05:15:08;;;;;;;53.95;26.33;;;;;;;;;;5008673;28;20160;-73
2022/03/03 05:17:34;;;;;;;50.40;25.40;;;;;;;;;;5008240;28;20053;-73
2022/03/03 05:20:00;;;;;;;57.75;24.50;;;;;;;;;;5009871;28;20046;-74
2022/03/03 05:22:26;;;;;;;52.63;25.02;;;;;;;;;;5008671;28;20042;-73
2022/03/03 05:24:53;;;;;;;48.88;23.75;;;;;;;;;;5009048;28;20129;-72
2022/03/03 05:27:20;;;;;;;54.35;24.35;;;;;;;;;;5008987;28;20486;-74
2022/03/03 05:29:46;;;;;;;53.20;24.17;;;;;;;;;;5008268;28;20391;-73
2022/03/03 05:32:12;;;;;;;50.53;24.25;;;;;;;;;;5008166;28;20100;-74
2022/03/03 05:34:38;;;;;;;49.33;22.25;;;;;;;;;;5008478;28;20513;-74
2022/03/03 05:37:05;;;;;;;52.10;24.80;;;;;;;;;;5009577;28;20072;-74
2022/03/03 05:39:32;;;;;;;50.55;23.27;;;;;;;;;;5007612;28;20045;-74
2022/03/03 05:41:58;;;;;;;51.85;24.77;;;;;;;;;;5008082;28;20050;-74
2022/03/03 05:44:24;;;;;;;40.72;16.95;;;;;;;;;;5008258;28;20626;-74
2022/03/03 05:46:51;;;;;;;55.05;26.33;;;;;;;;;;5007989;28;20038;-74
2022/03/03 05:49:21;;;;;;;53.65;26.58;;;;;;;;;;5008938;28;20082;-74
2022/03/03 05:51:47;;;;;;;56.47;25.77;;;;;;;;;;5022942;28;20120;-74
2022/03/03 05:54:13;;;;;;;56.40;26.88;;;;;;;;;;5011039;28;20029;-73
2022/03/03 05:56:41;;;;;;;46.58;23.08;;;;;;;;;;5028144;28;20141;-74
2022/03/03 05:59:08;;;;;;;50.58;24.30;;;;;;;;;;5028759;28;20054;-72
2022/03/03 06:01:37;;;;;;;47.83;23.55;;;;;;;;;;5011204;28;20455;-73
2022/03/03 06:04:04;;;;;;;52.33;25.35;;;;;;;;;;5011456;28;20041;-74
2022/03/03 06:06:34;;;;;;;50.78;25.98;;;;;;;;;;5010735;28;20078;-73
2022/03/03 06:09:00;;;;;;;47.80;22.33;;;;;;;;;;5028809;28;20415;-74
2022/03/03 06:11:27;;;;;;;50.35;24.67;;;;;;;;;;5011210;28;20552;-74
2022/03/03 06:13:58;;;;;;;54.40;24.52;;;;;;;;;;5011254;28;20138;-74
2022/03/03 06:16:24;;;;;;;52.85;26.38;;;;;;;;;;5028563;28;20037;-74
2022/03/03 06:18:50;;;;;;;39.88;18.17;;;;;;;;;;5010425;28;20589;-73
2022/03/03 06:21:17;;;;;;;46.38;21.15;;;;;;;;;;5010722;28;20041;-73
2022/03/03 06:23:44;;;;;;;52.13;24.00;;;;;;;;;;5010542;28;20038;-74
2022/03/03 06:26:17;;;;;;;46.58;22.55;;;;;;;;;;5010675;28;20045;-73
2022/03/03 06:28:44;;;;;;;48.83;21.92;;;;;;;;;;5028141;28;20061;-73
2022/03/03 06:31:10;;;;;;;51.45;23.00;;;;;;;;;;5010682;28;20049;-74
2022/03/03 06:33:37;;;;;;;45.28;21.85;;;;;;;;;;5027884;28;20190;-73
2022/03/03 06:36:03;;;;;;;46.90;24.10;;;;;;;;;;5010770;28;20056;-74
2022/03/03 06:38:29;;;;;;;48.20;23.85;;;;;;;;;;5010426;28;20133;-74
2022/03/03 06:40:57;;;;;;;45.50;20.83;;;;;;;;;;4994486;28;20045;-74
2022/03/03 06:43:24;;;;;;;47.95;23.63;;;;;;;;;;5028472;28;20045;-73
2022/03/03 06:45:50;;;;;;;53.05;23.60;;;;;;;;;;5010514;28;20432;-74
2022/03/03 06:48:17;;;;;;;52.13;24.73;;;;;;;;;;5027850;28;20045;-74
2022/03/03 06:50:43;;;;;;;46.15;22.38;;;;;;;;;;4993911;28;20041;-74
2022/03/03 06:53:10;;;;;;;41.13;20.60;;;;;;;;;;5028227;28;20033;-74
2022/03/03 06:55:37;;;;;;;45.72;21.95;;;;;;;;;;5027255;28;20065;-74
2022/03/03 06:58:03;;;;;;;42.58;21.42;;;;;;;;;;5028025;28;20486;-73
2022/03/03 07:00:33;;;;;;;42.08;22.27;;;;;;;;;;5028044;28;20357;-74
2022/03/03 07:03:00;;;;;;;43.20;21.75;;;;;;;;;;5027859;28;20080;-74
2022/03/03 07:05:28;;;;;;;44.30;23.20;;;;;;;;;;5010139;28;20042;-74
2022/03/03 07:07:54;;;;;;;39.35;21.23;;;;;;;;;;5027597;28;20041;-73
2022/03/03 07:10:25;;;;;;;39.35;22.27;;;;;;;;;;5009860;28;20057;-74
2022/03/03 07:12:55;;;;;;;39.83;21.73;;;;;;;;;;4993911;28;20045;-74
2022/03/03 07:15:23;;;;;;;43.03;23.20;;;;;;;;;;5010037;28;20495;-73
2022/03/03 07:17:51;;;;;;;40.50;22.73;;;;;;;;;;5027117;28;20038;-74
2022/03/03 07:20:36;;;;;;;37.97;21.98;;;;;;;;;;5027355;28;20116;-74
2022/03/03 07:23:13;;;;;;;40.23;21.97;;;;;;;;;;5010137;28;20064;-74
2022/03/03 07:25:48;;;;;;;39.80;21.55;;;;;;;;;;5027684;28;20077;-74
2022/03/03 07:28:15;;;;;;;37.00;21.08;;;;;;;;;;5027617;28;20046;-74
2022/03/03 07:30:42;;;;;;;36.80;19.92;;;;;;;;;;4993082;28;20064;-74
2022/03/03 07:33:15;;;;;;;36.75;21.30;;;;;;;;;;5010265;28;20065;-73
2022/03/03 07:35:43;;;;;;;34.70;19.05;;;;;;;;;;5009003;28;20046;-74
2022/03/03 07:38:14;;;;;;;38.90;21.38;;;;;;;;;;5027641;28;20049;-74
2022/03/03 07:40:43;;;;;;;33.40;20.63;;;;;;;;;;4992868;28;20045;-73
2022/03/03 07:43:11;;;;;;;31.00;18.23;;;;;;;;;;5009501;28;20049;-73
2022/03/03 07:45:37;;;;;;;33.67;18.85;;;;;;;;;;5009296;28;20128;-74
2022/03/03 07:48:03;;;;;;;34.20;19.52;;;;;;;;;;5009875;28;20440;-73
2022/03/03 07:50:29;;;;;;;33.33;19.98;;;;;;;;;;5009569;28;20073;-74
2022/03/03 07:52:56;;;;;;;31.40;18.35;;;;;;;;;;5009761;28;20049;-74
2022/03/03 07:55:23;;;;;;;34.40;20.50;;;;;;;;;;5027090;28;20042;-74
2022/03/03 07:57:52;;;;;;;33.28;18.67;;;;;;;;;;5008943;28;20041;-74
2022/03/03 08:00:18;;;;;;;32.70;17.90;;;;;;;;;;5009571;28;20052;-74
2022/03/03 08:02:45;;;;;;;31.17;18.58;;;;;;;;;;5009052;28;20034;-73
2022/03/03 08:05:12;;;;;;;29.30;16.73;;;;;;;;;;5026992;28;20041;-73
2022/03/03 08:07:46;;;;;;;32.75;18.20;;;;;;;;;;5026413;28;20034;-73
2022/03/03 08:10:13;;;;;;;29.67;18.13;;;;;;;;;;5009816;28;20563;-73
2022/03/03 08:12:40;;;;;;;30.42;18.70;;;;;;;;;;5026662;28;20087;-73
2022/03/03 08:15:07;;;;;;;32.65;18.52;;;;;;;;;;5009389;28;20133;-73
2022/03/03 08:17:34;;;;;;;31.92;17.73;;;;;;;;;;5008590;28;20033;-74
2022/03/03 08:20:02;;;;;;;29.58;18.05;;;;;;;;;;5013050;28;20494;-73
2022/03/03 08:22:29;;;;;;;30.00;17.52;;;;;;;;;;5012710;28;20494;-73
2022/03/03 08:24:56;;;;;;;30.13;18.40;;;;;;;;;;5012569;28;20088;-73
2022/03/03 08:27:23;;;;;;;30.77;18.05;;;;;;;;;;5030295;28;20037;-73
2022/03/03 08:29:52;;;;;;;29.83;16.85;;;;;;;;;;5012240;28;20486;-73
2022/03/03 08:32:19;;;;;;;31.00;18.60;;;;;;;;;;4996158;28;20498;-73
2022/03/03 08:35:05;;;;;;;29.67;17.20;;;;;;;;;;5011993;28;20049;-73
2022/03/03 08:37:44;;;;;;;27.17;15.80;;;;;;;;;;5030007;28;20505;-74
2022/03/03 08:40:12;;;;;;;30.00;16.10;;;;;;;;;;5012610;28;20613;-73
2022/03/03 08:42:40;;;;;;;27.92;17.30;;;;;;;;;;5029691;28;20493;-75
2022/03/03 08:45:08;;;;;;;26.38;18.30;;;;;;;;;;5012433;28;20050;-74
2022/03/03 08:47:34;;;;;;;28.20;16.92;;;;;;;;;;5012354;28;20493;-73
2022/03/03 08:50:06;;;;;;;27.45;17.30;;;;;;;;;;5012469;28;20049;-73
2022/03/03 08:52:32;;;;;;;28.83;18.83;;;;;;;;;;5010272;28;20394;-74
2022/03/03 08:54:58;;;;;;;26.73;17.02;;;;;;;;;;5009075;28;20046;-74
2022/03/03 08:57:24;;;;;;;25.10;15.82;;;;;;;;;;5010361;28;20044;-74
2022/03/03 08:59:50;;;;;;;27.27;17.85;;;;;;;;;;4976298;28;20140;-73
2022/03/03 09:02:17;;;;;;;25.70;17.65;;;;;;;;;;4976766;28;20048;-75
2022/03/03 09:04:45;;;;;;;29.85;17.30;;;;;;;;;;5009529;28;20106;-76
2022/03/03 09:07:11;;;;;;;24.00;16.23;;;;;;;;;;5010021;28;20064;-74
2022/03/03 09:09:37;;;;;;;26.40;14.55;;;;;;;;;;4992050;28;20042;-73
2022/03/03 09:12:03;;;;;;;26.05;15.98;;;;;;;;;;4992963;28;20545;-73
2022/03/03 09:14:30;;;;;;;22.85;13.85;;;;;;;;;;4992372;28;20512;-72
2022/03/03 09:16:56;;;;;;;23.95;16.17;;;;;;;;;;4976333;28;20599;-73
2022/03/03 09:19:22;;;;;;;24.33;16.27;;;;;;;;;;4992216;28;20445;-73
2022/03/03 09:21:49;;;;;;;23.23;16.23;;;;;;;;;;5009088;28;20065;-74
2022/03/03 09:24:15;;;;;;;22.83;13.63;;;;;;;;;;5009843;28;20428;-72
2022/03/03 09:26:41;;;;;;;22.38;15.85;;;;;;;;;;4991433;28;20129;-74
2022/03/03 09:29:07;;;;;;;20.58;14.60;;;;;;;;;;4991582;28;20049;-73
2022/03/03 09:31:33;;;;;;;21.05;15.32;;;;;;;;;;5008622;28;20049;-73
2022/03/03 09:33:59;;;;;;;19.45;13.07;;;;;;;;;;5009538;28;20049;-73
2022/03/03 09:36:25;;;;;;;23.60;14.80;;;;;;;;;;4992063;28;20507;-73
2022/03/03 09:38:51;;;;;;;21.90;15.57;;;;;;;;;;4991205;28;20042;-72
2022/03/03 09:41:18;;;;;;;24.02;15.90;;;;;;;;;;4992231;28;20046;-73
2022/03/03 09:43:44;;;;;;;24.02;16.67;;;;;;;;;;4991475;28;20490;-74
2022/03/03 09:46:11;;;;;;;37.65;23.98;;;;;;;;;;4975718;28;20125;-72
2022/03/03 09:48:37;;;;;;;32.63;19.88;;;;;;;;;;5009084;28;20050;-75
2022/03/03 09:51:03;;;;;;;29.23;19.08;;;;;;;;;;4983510;28;20041;-72
2022/03/03 09:53:29;;;;;;;32.53;21.27;;;;;;;;;;5028924;28;20044;-74
2022/03/03 09:55:56;;;;;;;30.00;20.75;;;;;;;;;;5011274;28;20409;-74
2022/03/03 09:58:22;;;;;;;26.75;18.70;;;;;;;;;;5029258;28;20518;-75
2022/03/03 10:00:48;;;;;;;27.10;17.77;;;;;;;;;;5011082;28;20041;-73
2022/03/03 10:03:16;;;;;;;24.23;16.70;;;;;;;;;;4995036;28;20045;-73
2022/03/03 10:05:47;;;;;;;24.13;16.23;;;;;;;;;;5011180;28;20041;-74
2022/03/03 10:08:17;;;;;;;22.00;14.73;;;;;;;;;;5010892;28;20053;-74
2022/03/03 10:10:44;;;;;;;21.27;15.70;;;;;;;;;;5010695;28;20038;-75
2022/03/03 10:13:14;;;;;;;22.60;16.10;;;;;;;;;;4995001;28;20469;-74
2022/03/03 10:15:40;;;;;;;22.08;16.52;;;;;;;;;;5010663;28;20049;-74
2022/03/03 10:18:09;;;;;;;21.75;15.57;;;;;;;;;;5028891;28;20042;-74
2022/03/03 10:20:52;;;;;;;22.60;16.10;;;;;;;;;;5011011;28;20120;-74
2022/03/03 10:23:19;;;;;;;22.98;16.50;;;;;;;;;;5011078;28;20083;-73
2022/03/03 10:25:46;;;;;;;21.98;15.40;;;;;;;;;;5028050;28;20536;-74
2022/03/03 10:28:16;;;;;;;20.25;15.30;;;;;;;;;;4994840;28;20090;-74
2022/03/03 10:30:58;;;;;;;20.80;14.57;;;;;;;;;;5010621;28;20049;-74
2022/03/03 10:33:25;;;;;;;20.63;15.02;;;;;;;;;;5010905;28;20094;-74
2022/03/03 10:35:58;;;;;;;21.70;15.45;;;;;;;;;;5010103;28;20124;-74
2022/03/03 10:38:24;;;;;;;19.25;15.32;;;;;;;;;;5010408;28;20046;-74
2022/03/03 10:40:51;;;;;;;20.70;14.40;;;;;;;;;;5009634;28;20081;-74
2022/03/03 10:43:17;;;;;;;19.13;14.93;;;;;;;;;;5010734;28;20042;-74
2022/03/03 10:45:55;;;;;;;21.35;15.80;;;;;;;;;;5010628;28;20045;-74
2022/03/03 10:48:22;;;;;;;20.80;13.98;;;;;;;;;;5010565;28;20061;-75
2022/03/03 10:50:49;;;;;;;22.60;15.20;;;;;;;;;;5010089;28;20059;-74
2022/03/03 10:53:19;;;;;;;21.55;14.80;;;;;;;;;;5010860;28;20045;-73
2022/03/03 10:56:05;;;;;;;19.48;13.32;;;;;;;;;;5010488;28;20041;-75
2022/03/03 10:58:52;;;;;;;18.90;14.35;;;;;;;;;;5010149;28;20052;-74
2022/03/03 11:01:19;;;;;;;19.77;13.25;;;;;;;;;;5010215;28;20125;-77
2022/03/03 11:03:49;;;;;;;19.08;13.10;;;;;;;;;;5009798;28;20042;-74
2022/03/03 11:06:20;;;;;;;19.25;14.50;;;;;;;;;;5028263;28;20040;-74
2022/03/03 11:08:47;;;;;;;18.17;13.93;;;;;;;;;;5010140;28;20423;-73
2022/03/03 11:11:13;;;;;;;19.15;13.68;;;;;;;;;;5010283;28;20049;-74
2022/03/03 11:13:40;;;;;;;18.35;14.18;;;;;;;;;;5009916;28;20045;-72
2022/03/03 11:16:07;;;;;;;21.13;12.75;;;;;;;;;;4994091;28;20371;-73
2022/03/03 11:18:34;;;;;;;19.17;14.98;;;;;;;;;;5010012;28;20072;-73
2022/03/03 11:21:00;;;;;;;17.55;13.48;;;;;;;;;;5009605;28;20056;-76
2022/03/03 11:23:36;;;;;;;18.08;13.55;;;;;;;;;;5010147;28;20085;-75
2022/03/03 11:26:03;;;;;;;19.63;14.38;;;;;;;;;;5027880;28;20065;-73
2022/03/03 11:28:39;;;;;;;17.67;13.23;;;;;;;;;;5027247;28;20128;-73
2022/03/03 11:31:28;;;;;;;19.27;14.23;;;;;;;;;;5010258;28;20061;-73
2022/03/03 11:34:13;;;;;;;18.33;13.93;;;;;;;;;;5009410;28;20120;-73
2022/03/03 11:36:44;;;;;;;20.63;14.32;;;;;;;;;;5009654;28;20128;-73
2022/03/03 11:39:10;;;;;;;20.73;13.55;;;;;;;;;;5009766;28;20053;-74
2022/03/03 11:41:47;;;;;;;17.05;13.45;;;;;;;;;;5009865;28;20045;-73
2022/03/03 11:44:14;;;;;;;16.15;12.85;;;;;;;;;;5010100;28;20123;-73
2022/03/03 11:46:46;;;;;;;18.92;12.75;;;;;;;;;;5027247;28;20038;-73
2022/03/03 11:49:16;;;;;;;17.10;13.32;;;;;;;;;;5009933;28;20053;-73
2022/03/03 11:51:42;;;;;;;17.73;12.68;;;;;;;;;;5009370;28;20142;-75
2022/03/03 11:54:12;;;;;;;17.20;13.60;;;;;;;;;;5026367;28;20052;-76
2022/03/03 11:56:57;;;;;;;16.98;12.65;;;;;;;;;;5027457;28;20049;-74
2022/03/03 11:59:32;;;;;;;18.17;13.32;;;;;;;;;;4993180;28;20046;-73
2022/03/03 12:01:58;;;;;;;;;;;;;;;;;;5009259;28;20049;-73
2022/03/03 12:04:26;;;;;;;15.60;12.02;;;;;;;;;;5009296;28;19917;-72
2022/03/03 12:06:54;;;;;;;15.32;10.90;;;;;;;;;;5009312;28;20077;-77
2022/03/03 12:09:26;;;;;;;16.83;10.57;;;;;;;;;;5009376;28;20056;-75
2022/03/03 12:12:07;;;;;;;14.63;11.82;;;;;;;;;;5008696;28;20061;-73
2022/03/03 12:14:35;;;;;;;15.73;11.80;;;;;;;;;;5027247;28;20370;-74
2022/03/03 12:17:20;;;;;;;14.65;11.40;;;;;;;;;;5008779;28;20041;-74
2022/03/03 12:19:46;;;;;;;13.93;10.77;;;;;;;;;;5026680;28;20045;-74
2022/03/03 12:22:32;;;;;;;14.10;10.55;;;;;;;;;;5009580;28;20045;-73
2022/03/03 12:25:02;;;;;;;15.48;11.45;;;;;;;;;;5009085;28;20044;-74
2022/03/03 12:27:28;;;;;;;15.23;10.65;;;;;;;;;;4993272;28;20041;-74
2022/03/03 12:29:57;;;;;;;13.88;9.70;;;;;;;;;;5008609;28;20120;-75
2022/03/03 12:32:26;;;;;;;14.32;10.20;;;;;;;;;;4992795;28;20061;-75
2022/03/03 12:34:53;;;;;;;14.50;9.93;;;;;;;;;;5008563;28;20049;-74
2022/03/03 12:37:19;;;;;;;11.68;9.68;;;;;;;;;;5009175;28;20034;-73
2022/03/03 12:39:49;;;;;;;11.85;9.32;;;;;;;;;;5008814;28;20107;-73
2022/03/03 12:42:22;;;;;;;11.93;8.82;;;;;;;;;;5009311;28;20389;-74
2022/03/03 12:44:55;;;;;;;12.25;8.55;;;;;;;;;;5026433;28;20077;-75
2022/03/03 12:47:34;;;;;;;12.40;8.63;;;;;;;;;;5027175;28;20041;-73
2022/03/03 12:50:02;;;;;;;11.70;9.13;;;;;;;;;;5008348;28;20048;-74
2022/03/03 12:52:28;;;;;;;14.13;8.88;;;;;;;;;;5026776;28;20076;-78
2022/03/03 12:54:55;;;;;;;14.75;9.50;;;;;;;;;;5008664;28;20055;-73
2022/03/03 12:57:32;;;;;;;13.93;10.50;;;;;;;;;;4992766;28;20041;-74
2022/03/03 12:59:59;;;;;;;15.43;10.38;;;;;;;;;;5026051;28;20445;-73
2022/03/03 13:02:25;;;;;;;15.07;10.10;;;;;;;;;;5008761;28;20486;-74
2022/03/03 13:04:51;;;;;;;13.88;10.10;;;;;;;;;;5010072;28;20049;-74
2022/03/03 13:07:17;;;;;;;11.70;8.70;;;;;;;;;;5029939;28;20440;-74
2022/03/03 13:09:56;;;;;;;11.40;8.18;;;;;;;;;;5029766;28;20446;-75
2022/03/03 13:12:23;;;;;;;11.10;7.00;;;;;;;;;;5012256;28;20060;-74
2022/03/03 13:14:59;;;;;;;10.32;7.63;;;;;;;;;;5029671;28;20049;-74
2022/03/03 13:17:25;;;;;;;12.30;8.65;;;;;;;;;;5012388;28;20045;-72
2022/03/03 13:19:52;;;;;;;9.38;6.70;;;;;;;;;;5011414;28;20078;-72
2022/03/03 13:22:18;;;;;;;11.23;8.00;;;;;;;;;;5011608;28;20041;-71
2022/03/03 13:24:44;;;;;;;11.18;6.38;;;;;;;;;;5011859;28;20397;-72
2022/03/03 13:27:12;;;;;;;11.35;6.95;;;;;;;;;;5011618;28;20042;-72
2022/03/03 13:29:38;;;;;;;11.55;8.07;;;;;;;;;;5011498;28;20057;-72
2022/03/03 13:32:14;;;;;;;8.38;5.45;;;;;;;;;;4994868;28;20062;-72
2022/03/03 13:34:45;;;;;;;10.30;6.72;;;;;;;;;;5011686;28;20402;-72
2022/03/03 13:37:18;;;;;;;9.32;6.40;;;;;;;;;;5011792;28;20088;-71
2022/03/03 13:39:45;;;;;;;9.82;5.60;;;;;;;;;;4995056;28;20057;-73
2022/03/03 13:42:14;;;;;;;12.38;7.50;;;;;;;;;;5011209;28;20068;-72
2022/03/03 13:44:53;;;;;;;12.18;7.93;;;;;;;;;;5029394;28;20416;-72
2022/03/03 13:47:24;;;;;;;11.75;7.68;;;;;;;;;;4995229;28;20038;-72
2022/03/03 13:49:51;;;;;;;12.25;8.05;;;;;;;;;;5028922;28;20068;-71
2022/03/03 13:52:19;;;;;;;15.32;9.55;;;;;;;;;;5029128;28;20128;-71
2022/03/03 13:54:53;;;;;;;15.63;9.18;;;;;;;;;;5028555;28;20064;-72
2022/03/03 13:57:39;;;;;;;21.55;9.48;;;;;;;;;;4995232;28;20455;-72
2022/03/03 14:00:12;;;;;;;18.45;10.98;;;;;;;;;;5010613;28;20064;-72
2022/03/03 14:02:48;;;;;;;18.08;10.48;;;;;;;;;;5011708;28;20501;-72
2022/03/03 14:05:15;;;;;;;16.00;10.30;;;;;;;;;;5010758;28;20048;-73
2022/03/03 14:07:49;;;;;;;15.82;9.73;;;;;;;;;;4994924;28;20073;-72
2022/03/03 14:10:15;;;;;;;17.67;10.13;;;;;;;;;;5010926;28;20132;-72
2022/03/03 14:12:59;;;;;;;15.35;8.30;;;;;;;;;;5028589;28;20042;-72
2022/03/03 14:15:26;;;;;;;14.85;8.68;;;;;;;;;;5028653;28;20390;-75
2022/03/03 14:17:52;;;;;;;15.35;9.85;;;;;;;;;;5010820;28;20393;-73
2022/03/03 14:20:19;;;;;;;15.27;8.48;;;;;;;;;;5010808;28;20037;-72
2022/03/03 14:22:54;;;;;;;13.55;9.35;;;;;;;;;;5028374;28;20042;-73
2022/03/03 14:25:20;;;;;;;13.27;8.90;;;;;;;;;;5010867;28;20129;-74